Time;durP1;ratioP1;P1;durP2;ratioP2;P2;SDS_P1;SDS_P2;PMS_P1;PMS_P2;Temp;Humidity;BMP_temperature;BMP_pressure;BME280_temperature;BME280_humidity;BME280_pressure;Samples;Min_cycle;Max_cycle;Signal;HPM_P1;HPM_P2
2023/03/12 00:01:57;;;;;;;28.48;26.27;;;;;;;6.22;100.00;100025.69;5063756;28;20041;-79
2023/03/12 00:04:23;;;;;;;26.55;24.70;;;;;;;5.04;100.00;100041.06;5063823;28;20053;-79
2023/03/12 00:06:50;;;;;;;22.15;20.50;;;;;;;4.49;100.00;100030.13;5064577;28;20572;-79
2023/03/12 00:09:18;;;;;;;24.48;22.52;;;;;;;4.72;100.00;100032.63;5064549;28;20258;-79
2023/03/12 00:11:45;;;;;;;26.13;24.30;;;;;;;4.76;100.00;100033.06;5063840;28;20102;-79
2023/03/12 00:14:12;;;;;;;31.70;29.30;;;;;;;4.54;100.00;100032.22;5063213;28;20049;-79
2023/03/12 00:16:38;;;;;;;28.95;26.70;;;;;;;4.34;100.00;100031.94;5063482;28;20049;-79
2023/03/12 00:19:05;;;;;;;29.77;27.25;;;;;;;4.37;100.00;100044.72;5062757;28;20052;-79
2023/03/12 00:21:32;;;;;;;34.00;31.55;;;;;;;4.29;100.00;100040.34;5063375;28;20588;-79
2023/03/12 00:23:59;;;;;;;27.58;25.48;;;;;;;5.19;100.00;100047.09;5065094;28;20170;-80
2023/03/12 00:26:27;;;;;;;25.58;23.70;;;;;;;4.23;100.00;100046.34;5063720;28;20102;-79
2023/03/12 00:28:53;;;;;;;21.38;19.63;;;;;;;4.42;100.00;100038.91;5062907;28;20075;-79
2023/03/12 00:31:23;;;;;;;21.73;19.85;;;;;;;5.17;100.00;100041.22;5063726;28;20049;-79
2023/03/12 00:33:50;;;;;;;23.95;21.90;;;;;;;4.39;100.00;100026.13;5063566;28;20045;-79
2023/03/12 00:36:17;;;;;;;29.27;26.85;;;;;;;4.07;100.00;100041.25;5063094;28;20106;-79
2023/03/12 00:38:44;;;;;;;28.25;25.58;;;;;;;4.83;100.00;100037.41;5062979;28;20476;-79
2023/03/12 00:41:11;;;;;;;33.30;30.67;;;;;;;4.94;100.00;100033.50;5063622;28;20114;-79
2023/03/12 00:43:39;;;;;;;26.85;24.75;;;;;;;4.15;100.00;100035.94;5063114;28;20052;-79
2023/03/12 00:46:09;;;;;;;28.33;25.85;;;;;;;5.20;100.00;100035.56;5064478;28;20075;-79
2023/03/12 00:48:36;;;;;;;26.48;24.48;;;;;;;5.35;100.00;100050.50;5068525;28;20103;-80
2023/03/12 00:51:03;;;;;;;27.67;25.20;;;;;;;4.29;100.00;100044.81;5066507;28;20057;-80
2023/03/12 00:53:29;;;;;;;28.33;26.33;;;;;;;4.27;100.00;100044.19;5066357;28;20041;-80
2023/03/12 00:55:56;;;;;;;29.95;27.77;;;;;;;4.32;100.00;100037.38;5066165;28;20498;-79
2023/03/12 00:58:23;;;;;;;27.02;24.77;;;;;;;4.13;100.00;100043.97;5065805;28;20102;-79
2023/03/12 01:00:51;;;;;;;28.75;26.23;;;;;;;5.02;100.00;100030.75;5066462;28;20075;-79
2023/03/12 01:03:18;;;;;;;28.63;26.73;;;;;;;4.59;100.00;100024.56;5067251;28;20049;-79
2023/03/12 01:05:44;;;;;;;28.02;26.02;;;;;;;4.57;100.00;100027.41;5067587;28;20056;-79
2023/03/12 01:08:12;;;;;;;30.05;27.10;;;;;;;4.59;100.00;100016.69;5066791;28;20053;-80
2023/03/12 01:10:43;;;;;;;25.95;23.88;;;;;;;4.05;100.00;100011.72;5066810;28;20049;-79
2023/03/12 01:13:09;;;;;;;30.63;28.25;;;;;;;4.74;100.00;100011.38;5066250;28;20109;-79
2023/03/12 01:15:36;;;;;;;26.02;24.33;;;;;;;4.08;100.00;100000.84;5067037;28;20052;-79
2023/03/12 01:18:05;;;;;;;26.05;24.25;;;;;;;4.02;100.00;100027.84;5066432;28;20131;-79
2023/03/12 01:20:31;;;;;;;35.17;32.83;;;;;;;5.48;100.00;100025.13;5066353;28;20480;-79
2023/03/12 01:22:58;;;;;;;34.47;32.03;;;;;;;4.00;100.00;100014.09;5066624;28;20049;-79
2023/03/12 01:25:25;;;;;;;28.75;26.48;;;;;;;4.32;100.00;100013.69;5066785;28;20049;-79
2023/03/12 01:27:51;;;;;;;28.75;26.88;;;;;;;4.23;100.00;100009.53;5065844;28;20075;-79
2023/03/12 01:30:18;;;;;;;27.73;25.75;;;;;;;4.33;100.00;100010.09;5065851;28;20056;-79
2023/03/12 01:32:45;;;;;;;32.60;30.27;;;;;;;4.65;100.00;100004.59;5065491;28;20067;-79
2023/03/12 01:35:13;;;;;;;26.15;24.15;;;;;;;5.26;100.00;100019.03;5066697;28;20049;-79
2023/03/12 01:37:40;;;;;;;30.45;28.00;;;;;;;4.59;100.00;100017.47;5067045;28;20056;-79
2023/03/12 01:40:07;;;;;;;30.70;28.60;;;;;;;4.90;100.00;100021.72;5065915;28;20048;-79
2023/03/12 01:42:34;;;;;;;36.13;32.47;;;;;;;4.53;100.00;100030.56;5065249;28;20045;-79
2023/03/12 01:45:03;;;;;;;27.27;25.25;;;;;;;4.80;100.00;100023.81;5064370;28;20558;-79
2023/03/12 01:47:31;;;;;;;32.03;30.10;;;;;;;5.38;100.00;100029.88;5064201;28;20049;-79
2023/03/12 01:50:00;;;;;;;28.23;26.15;;;;;;;4.08;100.00;100022.66;5067376;28;20072;-79
2023/03/12 01:52:32;;;;;;;29.88;27.13;;;;;;;3.88;100.00;100048.66;5066800;28;20052;-79
2023/03/12 01:55:03;;;;;;;31.83;28.83;;;;;;;4.35;100.00;100052.78;5065344;28;20106;-79
2023/03/12 01:57:34;;;;;;;30.65;28.42;;;;;;;4.66;100.00;100056.22;5064255;28;20052;-79
2023/03/12 02:00:06;;;;;;;29.52;27.27;;;;;;;4.98;100.00;100060.25;5065371;28;20053;-79
2023/03/12 02:02:35;;;;;;;24.35;22.65;;;;;;;4.63;100.00;100062.69;5066455;28;20470;-79
2023/03/12 02:05:10;;;;;;;31.40;29.35;;;;;;;4.42;100.00;100071.28;5064939;28;20053;-79
2023/03/12 02:07:38;;;;;;;29.98;27.17;;;;;;;3.90;100.00;100080.00;5065585;28;20048;-79
2023/03/12 02:10:05;;;;;;;29.15;26.83;;;;;;;3.86;100.00;100082.19;5065581;28;20060;-79
2023/03/12 02:12:33;;;;;;;30.08;27.70;;;;;;;3.47;100.00;100084.13;5060020;28;20041;-77
2023/03/12 02:14:59;;;;;;;27.33;25.33;;;;;;;3.53;100.00;100092.13;5054288;28;20057;-77
2023/03/12 02:17:26;;;;;;;27.23;25.17;;;;;;;3.76;100.00;100096.56;5054218;28;20099;-77
2023/03/12 02:20:06;;;;;;;30.98;28.90;;;;;;;3.47;100.00;100100.69;5053939;28;20118;-77
2023/03/12 02:22:35;;;;;;;31.52;29.30;;;;;;;3.52;100.00;100102.81;5060306;28;20049;-78
2023/03/12 02:25:12;;;;;;;32.35;29.85;;;;;;;3.94;100.00;100102.31;5064775;28;20102;-79
2023/03/12 02:27:40;;;;;;;37.35;34.30;;;;;;;3.50;100.00;100104.78;5064722;28;20457;-79
2023/03/12 02:30:13;;;;;;;29.13;27.23;;;;;;;4.33;100.00;100111.81;5064703;28;20048;-79
2023/03/12 02:32:41;;;;;;;31.50;29.40;;;;;;;3.11;100.00;100114.34;5063065;28;20116;-79
2023/03/12 02:35:08;;;;;;;26.83;24.58;;;;;;;3.16;100.00;100114.66;5064999;28;20071;-79
2023/03/12 02:37:35;;;;;;;30.83;28.23;;;;;;;3.21;100.00;100111.53;5063470;28;20071;-79
2023/03/12 02:40:05;;;;;;;33.85;31.58;;;;;;;3.72;100.00;100118.91;5063761;28;20049;-79
2023/03/12 02:42:34;;;;;;;28.50;26.58;;;;;;;3.07;100.00;100125.38;5063437;28;20108;-79
2023/03/12 02:45:02;;;;;;;27.67;25.83;;;;;;;3.15;100.00;100128.78;5062761;28;20044;-79
2023/03/12 02:47:28;;;;;;;26.27;24.63;;;;;;;3.11;100.00;100135.34;5062850;28;20057;-79
2023/03/12 02:49:55;;;;;;;30.90;28.83;;;;;;;3.79;100.00;100141.69;5063511;28;20053;-79
2023/03/12 02:52:22;;;;;;;26.27;24.10;;;;;;;3.04;100.00;100133.59;5064101;28;20045;-79
2023/03/12 02:54:49;;;;;;;23.45;21.67;;;;;;;2.99;100.00;100147.22;5063141;28;20139;-79
2023/03/12 02:57:15;;;;;;;29.80;27.75;;;;;;;3.50;100.00;100157.31;5063031;28;20049;-79
2023/03/12 02:59:43;;;;;;;28.02;26.42;;;;;;;3.50;100.00;100154.69;5063485;28;20049;-79
2023/03/12 03:02:11;;;;;;;25.33;23.63;;;;;;;3.33;100.00;100164.44;5063268;28;20057;-79
2023/03/12 03:04:38;;;;;;;25.60;23.42;;;;;;;3.13;100.00;100162.25;5062980;28;20049;-79
2023/03/12 03:07:05;;;;;;;25.45;23.77;;;;;;;3.08;100.00;100164.56;5062602;28;20579;-79
2023/03/12 03:09:32;;;;;;;26.73;24.60;;;;;;;3.10;100.00;100170.47;5063791;28;20052;-79
2023/03/12 03:11:59;;;;;;;29.35;27.35;;;;;;;2.82;100.00;100172.69;5063403;28;20430;-79
2023/03/12 03:14:26;;;;;;;27.88;26.13;;;;;;;3.07;100.00;100159.50;5062803;28;20049;-79
2023/03/12 03:16:54;;;;;;;23.92;22.13;;;;;;;2.78;100.00;100181.06;5063103;28;20053;-79
2023/03/12 03:19:21;;;;;;;23.48;21.88;;;;;;;2.81;100.00;100178.09;5062532;28;20045;-79
2023/03/12 03:21:48;;;;;;;26.65;24.85;;;;;;;2.74;100.00;100188.44;5062851;28;20118;-79
2023/03/12 03:24:15;;;;;;;28.55;26.85;;;;;;;3.19;100.00;100187.81;5062425;28;20049;-79
2023/03/12 03:26:43;;;;;;;27.98;26.08;;;;;;;2.78;100.00;100197.59;5062194;28;20044;-79
2023/03/12 03:29:10;;;;;;;28.38;26.58;;;;;;;2.64;100.00;100190.44;5061977;28;20056;-79
2023/03/12 03:31:36;;;;;;;27.20;25.55;;;;;;;2.62;100.00;100200.28;5062552;28;20053;-79
2023/03/12 03:34:04;;;;;;;33.15;31.25;;;;;;;3.34;100.00;100206.28;5062333;28;20102;-79
2023/03/12 03:36:31;;;;;;;27.60;25.52;;;;;;;2.66;100.00;100198.94;5062224;28;20072;-79
2023/03/12 03:38:58;;;;;;;24.05;22.33;;;;;;;3.30;100.00;100196.28;5062360;28;20052;-79
2023/03/12 03:41:25;;;;;;;30.65;28.88;;;;;;;2.63;100.00;100212.41;5062874;28;20045;-79
2023/03/12 03:43:51;;;;;;;29.40;27.77;;;;;;;3.58;100.00;100207.97;5062403;28;20049;-79
2023/03/12 03:46:18;;;;;;;24.88;23.25;;;;;;;2.68;100.00;100218.78;5062709;28;20052;-79
2023/03/12 03:48:45;;;;;;;25.75;24.05;;;;;;;2.66;100.00;100227.78;5061374;28;20067;-79
2023/03/12 03:51:13;;;;;;;28.70;26.80;;;;;;;3.07;100.00;100233.78;5062196;28;20045;-79
2023/03/12 03:53:40;;;;;;;25.52;23.67;;;;;;;2.71;100.00;100225.50;5061941;28;20049;-79
2023/03/12 03:56:07;;;;;;;26.20;24.10;;;;;;;2.65;100.00;100240.09;5061942;28;20107;-79
2023/03/12 03:58:34;;;;;;;24.38;22.40;;;;;;;2.60;100.00;100242.38;5061661;28;20067;-79
2023/03/12 04:01:01;;;;;;;26.08;24.33;;;;;;;3.09;100.00;100255.44;5057744;28;20053;-78
2023/03/12 04:03:28;;;;;;;24.05;22.33;;;;;;;2.95;100.00;100262.19;5052111;28;20045;-77
2023/03/12 04:05:55;;;;;;;23.02;21.42;;;;;;;2.64;100.00;100263.88;5052055;28;20106;-77
2023/03/12 04:08:24;;;;;;;23.17;21.40;;;;;;;2.61;100.00;100256.34;5052410;28;20045;-77
2023/03/12 04:10:51;;;;;;;24.35;22.85;;;;;;;3.30;100.00;100265.38;5052341;28;20057;-77
2023/03/12 04:13:18;;;;;;;23.40;21.65;;;;;;;2.62;100.00;100260.59;5052453;28;20114;-77
2023/03/12 04:15:48;;;;;;;26.58;24.92;;;;;;;3.67;100.00;100264.72;5052128;28;20502;-77
2023/03/12 04:18:15;;;;;;;23.80;22.02;;;;;;;2.57;100.00;100260.25;5062376;28;20052;-79
2023/03/12 04:20:42;;;;;;;23.88;22.17;;;;;;;2.50;100.00;100255.66;5061978;28;20053;-79
2023/03/12 04:23:08;;;;;;;23.23;21.48;;;;;;;2.47;100.00;100276.97;5066220;28;20066;-79
2023/03/12 04:25:37;;;;;;;21.75;20.13;;;;;;;2.36;100.00;100274.69;5065783;28;20045;-79
2023/03/12 04:28:05;;;;;;;21.75;20.08;;;;;;;3.21;100.00;100275.06;5065711;28;20487;-79
2023/03/12 04:30:31;;;;;;;21.27;18.60;;;;;;;2.34;100.00;100286.31;5065510;28;20122;-79
2023/03/12 04:32:58;;;;;;;19.83;18.35;;;;;;;3.03;100.00;100292.03;5066417;28;20111;-79
2023/03/12 04:35:25;;;;;;;19.42;17.92;;;;;;;2.42;100.00;100291.53;5065247;28;20049;-79
2023/03/12 04:37:52;;;;;;;20.30;18.50;;;;;;;2.44;100.00;100297.47;5065622;28;20484;-79
2023/03/12 04:40:19;;;;;;;20.73;18.95;;;;;;;3.10;100.00;100288.56;5065714;28;20502;-79
2023/03/12 04:42:47;;;;;;;21.85;20.13;;;;;;;2.47;100.00;100299.75;5065273;28;20048;-79
2023/03/12 04:45:14;;;;;;;23.58;21.52;;;;;;;3.13;100.00;100301.34;5064381;28;20159;-79
2023/03/12 04:47:41;;;;;;;20.05;18.25;;;;;;;2.67;100.00;100310.75;5065046;28;20110;-79
2023/03/12 04:50:09;;;;;;;21.10;19.23;;;;;;;2.35;100.00;100306.28;5064995;28;20099;-79
2023/03/12 04:52:36;;;;;;;24.13;22.38;;;;;;;3.93;100.00;100317.94;5064998;28;20114;-79
2023/03/12 04:55:03;;;;;;;20.77;19.17;;;;;;;2.50;100.00;100326.44;5064927;28;20494;-79
2023/03/12 04:57:29;;;;;;;20.50;18.55;;;;;;;3.28;100.00;100340.84;5063059;28;20053;-77
2023/03/12 04:59:57;;;;;;;22.70;20.50;;;;;;;2.84;100.00;100338.59;5055621;28;20477;-77
2023/03/12 05:02:24;;;;;;;23.10;21.33;;;;;;;3.10;100.00;100338.41;5055131;28;20110;-77
2023/03/12 05:04:51;;;;;;;21.48;19.48;;;;;;;2.28;100.00;100341.00;5055219;28;20106;-77
2023/03/12 05:07:18;;;;;;;23.20;21.40;;;;;;;2.73;100.00;100346.81;5055484;28;20182;-77
2023/03/12 05:09:45;;;;;;;21.45;19.58;;;;;;;2.49;100.00;100355.47;5055534;28;20049;-77
2023/03/12 05:12:12;;;;;;;20.60;18.67;;;;;;;2.19;100.00;100354.28;5055126;28;20044;-77
2023/03/12 05:14:39;;;;;;;21.77;19.98;;;;;;;3.49;100.00;100355.25;5055446;28;20049;-77
2023/03/12 05:17:07;;;;;;;25.05;22.95;;;;;;;3.05;100.00;100360.88;5055165;28;20528;-77
2023/03/12 05:19:34;;;;;;;21.77;19.83;;;;;;;2.86;100.00;100377.78;5055256;28;20049;-77
2023/03/12 05:22:01;;;;;;;26.70;24.80;;;;;;;3.46;100.00;100389.72;5054985;28;20052;-77
2023/03/12 05:24:28;;;;;;;24.95;22.85;;;;;;;3.86;100.00;100391.38;5055140;28;20045;-77
2023/03/12 05:26:54;;;;;;;20.90;19.13;;;;;;;3.13;100.00;100390.56;5054751;28;20498;-77
2023/03/12 05:29:21;;;;;;;21.67;19.67;;;;;;;2.95;100.00;100388.09;5054820;28;20505;-77
2023/03/12 05:31:48;;;;;;;20.45;18.88;;;;;;;2.81;100.00;100401.88;5054444;28;20518;-77
2023/03/12 05:34:17;;;;;;;21.35;19.60;;;;;;;3.10;100.00;100404.00;5056168;28;20052;-78
2023/03/12 05:36:44;;;;;;;23.15;20.90;;;;;;;3.29;100.00;100415.97;5064500;28;20041;-79
2023/03/12 05:39:11;;;;;;;21.20;19.45;;;;;;;2.80;100.00;100418.59;5064236;28;20061;-79
2023/03/12 05:41:37;;;;;;;21.35;19.50;;;;;;;2.77;100.00;100423.34;5064108;28;20057;-79
2023/03/12 05:44:05;;;;;;;22.08;20.02;;;;;;;3.27;100.00;100431.09;5064216;28;20049;-79
2023/03/12 05:46:31;;;;;;;19.73;18.13;;;;;;;2.73;100.00;100428.09;5063486;28;20552;-79
2023/03/12 05:48:58;;;;;;;21.27;19.38;;;;;;;3.29;100.00;100433.53;5064037;28;20053;-79
2023/03/12 05:51:26;;;;;;;21.70;20.10;;;;;;;3.85;100.00;100439.69;5063801;28;20044;-79
2023/03/12 05:53:53;;;;;;;20.27;18.45;;;;;;;2.96;100.00;100451.88;5064289;28;20048;-79
2023/03/12 05:56:20;;;;;;;21.33;19.58;;;;;;;3.46;100.00;100453.53;5064579;28;20518;-79
2023/03/12 05:58:48;;;;;;;21.27;19.52;;;;;;;4.07;100.00;100465.22;5064021;28;20071;-79
2023/03/12 06:01:18;;;;;;;24.85;23.05;;;;;;;6.12;100.00;100469.00;5065969;28;20139;-79
2023/03/12 06:03:45;;;;;;;20.98;19.08;;;;;;;3.79;100.00;100477.13;5066395;28;20045;-79
2023/03/12 06:06:12;;;;;;;20.60;18.95;;;;;;;5.07;100.00;100474.25;5065964;28;20494;-79
2023/03/12 06:08:41;;;;;;;22.30;20.60;;;;;;;3.65;100.00;100479.44;5065007;28;20045;-79
2023/03/12 06:11:08;;;;;;;20.65;18.85;;;;;;;3.29;100.00;100486.84;5064312;28;20049;-79
2023/03/12 06:13:35;;;;;;;19.90;18.20;;;;;;;3.75;100.00;100488.94;5063931;28;20107;-79
2023/03/12 06:16:03;;;;;;;22.25;20.45;;;;;;;4.93;100.00;100489.81;5063942;28;20071;-79
2023/03/12 06:18:30;;;;;;;22.13;20.02;;;;;;;3.94;100.00;100507.00;5064575;28;20068;-79
2023/03/12 06:21:08;;;;;;;21.48;19.55;;;;;;;3.99;100.00;100507.28;5064411;28;20477;-79
2023/03/12 06:23:34;;;;;;;19.40;17.83;;;;;;;3.45;100.00;100520.19;5064070;28;20053;-79
2023/03/12 06:26:02;;;;;;;19.27;17.67;;;;;;;3.69;100.00;100532.47;5064350;28;20476;-79
2023/03/12 06:28:29;;;;;;;22.08;20.33;;;;;;;4.51;100.00;100533.09;5064058;28;20098;-79
2023/03/12 06:30:56;;;;;;;21.25;19.55;;;;;;;4.19;100.00;100526.13;5064397;28;20056;-79
2023/03/12 06:33:23;;;;;;;20.50;18.95;;;;;;;4.56;100.00;100536.03;5065722;28;20452;-79
2023/03/12 06:35:53;;;;;;;20.48;18.98;;;;;;;4.28;100.00;100537.47;5065619;28;20053;-79
2023/03/12 06:38:20;;;;;;;22.30;20.58;;;;;;;3.83;100.00;100554.63;5063606;28;20418;-79
2023/03/12 06:40:55;;;;;;;22.17;20.42;;;;;;;4.63;100.00;100551.97;5064479;28;20505;-79
2023/03/12 06:43:24;;;;;;;21.42;19.73;;;;;;;4.74;100.00;100548.13;5064856;28;20108;-79
2023/03/12 06:45:51;;;;;;;20.63;18.88;;;;;;;5.16;100.00;100549.53;5063891;28;20524;-79
2023/03/12 06:48:18;;;;;;;23.52;21.77;;;;;;;4.81;100.00;100555.16;5064375;28;20053;-79
2023/03/12 06:50:44;;;;;;;22.63;20.63;;;;;;;4.85;100.00;100566.16;5064642;28;20122;-79
2023/03/12 06:53:11;;;;;;;21.80;20.00;;;;;;;5.57;100.00;100563.25;5065196;28;20053;-79
2023/03/12 06:55:38;;;;;;;21.75;19.77;;;;;;;5.71;100.00;100578.25;5066144;28;20104;-79
2023/03/12 06:58:05;;;;;;;20.70;19.20;;;;;;;5.44;100.00;100581.44;5066886;28;20049;-79
2023/03/12 07:00:33;;;;;;;20.63;18.90;;;;;;;5.95;100.00;100581.72;5065337;28;20052;-79
2023/03/12 07:03:00;;;;;;;19.75;17.92;;;;;;;5.07;100.00;100588.25;5065256;28;20112;-79
2023/03/12 07:05:28;;;;;;;19.92;18.52;;;;;;;4.90;100.00;100589.31;5064435;28;20049;-79
2023/03/12 07:07:55;;;;;;;23.92;21.58;;;;;;;5.90;100.00;100591.94;5064371;28;20045;-79
2023/03/12 07:10:22;;;;;;;20.92;19.35;;;;;;;4.79;100.00;100593.16;5065741;28;20057;-79
2023/03/12 07:12:49;;;;;;;22.17;20.40;;;;;;;4.88;100.00;100588.69;5064586;28;20053;-79
2023/03/12 07:15:16;;;;;;;26.15;24.27;;;;;;;5.26;100.00;100594.88;5065678;28;20103;-79
2023/03/12 07:17:44;;;;;;;26.75;24.63;;;;;;;5.18;100.00;100597.59;5065480;28;20075;-79
2023/03/12 07:20:12;;;;;;;26.20;24.15;;;;;;;5.12;100.00;100599.09;5065237;28;20057;-79
2023/03/12 07:22:39;;;;;;;30.60;28.50;;;;;;;5.48;100.00;100598.56;5064488;28;20110;-80
2023/03/12 07:25:06;;;;;;;32.08;29.73;;;;;;;5.51;100.00;100593.75;5064856;28;20052;-79
2023/03/12 07:27:33;;;;;;;27.30;25.45;;;;;;;5.79;100.00;100597.66;5065095;28;20106;-79
2023/03/12 07:29:59;;;;;;;29.98;27.77;;;;;;;5.62;100.00;100595.13;5066322;28;20049;-79
2023/03/12 07:32:26;;;;;;;60.92;56.47;;;;;;;6.08;100.00;100605.69;5065309;28;20071;-79
2023/03/12 07:34:54;;;;;;;60.70;55.53;;;;;;;6.57;100.00;100610.44;5065617;28;20071;-79
2023/03/12 07:37:21;;;;;;;73.07;65.63;;;;;;;6.09;100.00;100620.50;5066114;28;20099;-79
2023/03/12 07:39:51;;;;;;;66.32;60.38;;;;;;;5.72;100.00;100610.72;5064574;28;20083;-79
2023/03/12 07:42:17;;;;;;;62.55;57.03;;;;;;;5.90;100.00;100611.25;5065797;28;20498;-79
2023/03/12 07:44:44;;;;;;;49.92;45.70;;;;;;;6.68;100.00;100626.81;5065009;28;20045;-79
2023/03/12 07:47:11;;;;;;;59.25;54.67;;;;;;;6.12;100.00;100614.88;5067383;28;20083;-79
2023/03/12 07:49:40;;;;;;;54.05;49.70;;;;;;;6.61;100.00;100622.28;5066215;28;20075;-79
2023/03/12 07:52:10;;;;;;;32.08;29.75;;;;;;;6.60;100.00;100627.75;5066185;28;20053;-79
2023/03/12 07:54:38;;;;;;;35.30;32.67;;;;;;;5.85;100.00;100628.59;5065820;28;20048;-79
2023/03/12 07:57:04;;;;;;;21.08;19.58;;;;;;;5.75;100.00;100620.91;5065790;28;20045;-79
2023/03/12 07:59:31;;;;;;;34.35;31.98;;;;;;;6.16;100.00;100631.97;5064104;28;20044;-79
2023/03/12 08:01:58;;;;;;;33.25;30.95;;;;;;;6.93;100.00;100649.31;5064532;28;20048;-79
2023/03/12 08:04:24;;;;;;;28.85;27.05;;;;;;;7.08;100.00;100652.75;5067980;28;20071;-79
2023/03/12 08:06:51;;;;;;;33.85;31.15;;;;;;;7.39;100.00;100661.44;5068961;28;20041;-79
2023/03/12 08:09:19;;;;;;;32.08;29.67;;;;;;;7.39;100.00;100667.53;5067688;28;20052;-79
2023/03/12 08:11:46;;;;;;;36.40;33.85;;;;;;;7.11;100.00;100675.34;5069073;28;20060;-79
2023/03/12 08:14:13;;;;;;;37.22;34.53;;;;;;;7.55;100.00;100680.50;5068454;28;20071;-79
2023/03/12 08:16:39;;;;;;;29.13;26.98;;;;;;;8.53;100.00;100687.91;5069017;28;20076;-79
2023/03/12 08:19:06;;;;;;;30.13;28.13;;;;;;;6.86;100.00;100691.44;5068258;28;20071;-80
2023/03/12 08:21:33;;;;;;;28.83;26.63;;;;;;;7.40;100.00;100700.88;5068046;28;20114;-80
2023/03/12 08:23:59;;;;;;;25.67;23.88;;;;;;;7.00;100.00;100712.78;5068803;28;20053;-79
2023/03/12 08:26:28;;;;;;;28.40;26.60;;;;;;;8.67;100.00;100702.91;5068480;28;20049;-80
2023/03/12 08:28:54;;;;;;;24.75;23.20;;;;;;;7.17;100.00;100710.75;5068403;28;20049;-79
2023/03/12 08:31:21;;;;;;;30.05;28.05;;;;;;;7.18;100.00;100717.69;5066084;28;20071;-79
2023/03/12 08:33:48;;;;;;;30.48;28.05;;;;;;;7.22;100.00;100719.75;5068193;28;20045;-80
2023/03/12 08:36:15;;;;;;;33.08;30.67;;;;;;;7.67;100.00;100724.97;5067916;28;20041;-79
2023/03/12 08:38:41;;;;;;;34.13;31.50;;;;;;;6.53;100.00;100721.81;5066164;28;20049;-79
2023/03/12 08:41:09;;;;;;;33.15;30.95;;;;;;;7.57;100.00;100727.91;5066589;28;20049;-79
2023/03/12 08:43:37;;;;;;;27.00;25.10;;;;;;;8.47;100.00;100729.22;5068763;28;20049;-79
2023/03/12 08:46:04;;;;;;;26.92;25.23;;;;;;;6.80;100.00;100739.69;5067313;28;20075;-79
2023/03/12 08:48:32;;;;;;;27.95;25.80;;;;;;;8.48;100.00;100738.81;5068633;28;20072;-79
2023/03/12 08:51:02;;;;;;;30.98;28.95;;;;;;;7.74;100.00;100747.00;5068402;28;20083;-79
2023/03/12 08:53:30;;;;;;;31.67;29.55;;;;;;;7.72;100.00;100755.13;5069406;28;20110;-79
2023/03/12 08:55:57;;;;;;;33.58;30.90;;;;;;;7.24;100.00;100748.66;5069067;28;20045;-79
2023/03/12 08:58:25;;;;;;;37.60;34.92;;;;;;;7.30;100.00;100751.38;5066851;28;20052;-80
2023/03/12 09:00:54;;;;;;;31.30;29.20;;;;;;;7.21;100.00;100759.59;5067372;28;20072;-80
2023/03/12 09:03:21;;;;;;;29.60;27.60;;;;;;;7.62;100.00;100749.31;5067930;28;20494;-79
2023/03/12 09:05:48;;;;;;;34.45;32.05;;;;;;;7.79;100.00;100752.56;5067028;28;20080;-79
2023/03/12 09:08:16;;;;;;;21.95;20.35;;;;;;;6.48;100.00;100742.66;5069086;28;20072;-79
2023/03/12 09:10:48;;;;;;;22.45;20.65;;;;;;;6.47;100.00;100746.28;5069200;28;20053;-79
2023/03/12 09:13:16;;;;;;;22.80;21.08;;;;;;;6.38;100.00;100729.69;5068920;28;20044;-79
2023/03/12 09:15:42;;;;;;;32.92;30.27;;;;;;;7.06;100.00;100746.38;5069302;28;20187;-79
2023/03/12 09:18:10;;;;;;;29.65;27.75;;;;;;;7.73;100.00;100743.53;5070407;28;20048;-79
2023/03/12 09:20:37;;;;;;;34.33;31.83;;;;;;;7.87;100.00;100739.22;5072468;28;20114;-79
2023/03/12 09:23:04;;;;;;;33.85;31.63;;;;;;;7.13;100.00;100749.91;5071227;28;20110;-80
2023/03/12 09:25:31;;;;;;;36.22;33.90;;;;;;;7.50;100.00;100750.78;5070987;28;20044;-79
2023/03/12 09:27:58;;;;;;;34.80;32.45;;;;;;;8.22;100.00;100753.41;5071562;28;20063;-79
2023/03/12 09:30:25;;;;;;;33.70;31.20;;;;;;;6.81;100.00;100751.09;5070761;28;20048;-79
2023/03/12 09:32:53;;;;;;;30.90;28.50;;;;;;;7.32;100.00;100757.31;5069143;28;20122;-79
2023/03/12 09:35:21;;;;;;;29.38;27.27;;;;;;;7.92;100.00;100762.47;5071304;28;20048;-79
2023/03/12 09:37:50;;;;;;;29.45;27.02;;;;;;;7.97;100.00;100754.78;5071429;28;20049;-79
2023/03/12 09:40:19;;;;;;;32.20;29.80;;;;;;;7.96;100.00;100761.09;5071488;28;20053;-79
2023/03/12 09:42:50;;;;;;;35.05;32.15;;;;;;;9.00;100.00;100771.97;5072255;28;20045;-79
2023/03/12 09:45:21;;;;;;;33.85;31.52;;;;;;;7.56;100.00;100765.91;5071498;28;20071;-80
2023/03/12 09:47:50;;;;;;;35.30;32.63;;;;;;;8.01;100.00;100771.91;5070875;28;20107;-80
2023/03/12 09:50:26;;;;;;;29.67;27.65;;;;;;;7.30;100.00;100777.78;5069053;28;20053;-79
2023/03/12 09:52:59;;;;;;;32.20;30.00;;;;;;;8.01;100.00;100782.50;5070520;28;20057;-79
2023/03/12 09:55:28;;;;;;;32.63;30.33;;;;;;;8.09;100.00;100784.22;5071037;28;20072;-80
2023/03/12 09:57:58;;;;;;;37.90;35.13;;;;;;;7.79;100.00;100786.94;5070006;28;20060;-80
2023/03/12 10:00:30;;;;;;;31.65;29.45;;;;;;;8.02;100.00;100792.09;5069158;28;20485;-79
2023/03/12 10:03:22;;;;;;;36.85;34.13;;;;;;;7.54;100.00;100794.38;5070792;28;20048;-79
2023/03/12 10:06:08;;;;;;;35.80;32.97;;;;;;;7.92;100.00;100794.19;5069212;28;20107;-79
2023/03/12 10:08:47;;;;;;;36.45;33.83;;;;;;;8.40;100.00;100797.16;5069670;28;20069;-79
2023/03/12 10:11:25;;;;;;;30.17;27.80;;;;;;;7.52;100.00;100793.72;5068820;28;20595;-79
2023/03/12 10:14:08;;;;;;;34.05;31.27;;;;;;;8.08;100.00;100804.56;5069005;28;20045;-79
2023/03/12 10:16:49;;;;;;;33.00;30.50;;;;;;;8.27;100.00;100808.41;5070420;28;20049;-80
2023/03/12 10:19:28;;;;;;;36.60;33.60;;;;;;;7.94;100.00;100806.22;5069723;28;20049;-80
2023/03/12 10:22:03;;;;;;;35.00;32.22;;;;;;;8.86;100.00;100802.03;5070049;28;20075;-80
2023/03/12 10:24:42;;;;;;;36.40;33.08;;;;;;;9.34;100.00;100789.69;5072175;28;20131;-79
2023/03/12 10:27:13;;;;;;;33.95;31.55;;;;;;;8.56;100.00;100790.78;5071379;28;20072;-79
2023/03/12 10:29:44;;;;;;;34.60;32.00;;;;;;;7.97;100.00;100795.28;5070152;28;20049;-79
2023/03/12 10:32:17;;;;;;;35.80;32.95;;;;;;;8.08;100.00;100801.06;5068637;28;20103;-79
2023/03/12 10:34:47;;;;;;;34.42;31.85;;;;;;;8.80;100.00;100793.00;5069734;28;20052;-80
2023/03/12 10:37:20;;;;;;;35.35;32.55;;;;;;;7.84;100.00;100804.88;5068932;28;20053;-79
2023/03/12 10:39:47;;;;;;;35.72;32.92;;;;;;;8.63;100.00;100800.44;5069113;28;20045;-79
2023/03/12 10:42:17;;;;;;;28.67;26.58;;;;;;;8.56;100.00;100801.38;5069796;28;20052;-79
2023/03/12 10:44:45;;;;;;;34.13;31.50;;;;;;;8.37;100.00;100810.75;5070667;28;20048;-79
2023/03/12 10:47:28;;;;;;;32.40;29.98;;;;;;;8.45;100.00;100814.13;5069317;28;20053;-79
2023/03/12 10:49:55;;;;;;;37.20;34.00;;;;;;;7.60;100.00;100817.41;5070656;28;20514;-79
2023/03/12 10:52:23;;;;;;;33.17;30.88;;;;;;;7.72;100.00;100804.56;5069242;28;20075;-79
2023/03/12 10:54:52;;;;;;;33.47;30.88;;;;;;;7.37;100.00;100816.69;5069179;28;20079;-80
2023/03/12 10:57:20;;;;;;;29.73;27.75;;;;;;;8.13;100.00;100818.03;5068577;28;20075;-80
2023/03/12 10:59:49;;;;;;;34.58;31.85;;;;;;;8.37;100.00;100818.69;5070477;28;20069;-79
2023/03/12 11:02:33;;;;;;;23.00;21.00;;;;;;;8.16;100.00;100809.72;5069834;28;20075;-79
2023/03/12 11:05:02;;;;;;;21.13;19.13;;;;;;;8.87;100.00;100808.97;5069658;28;20048;-79
2023/03/12 11:07:31;;;;;;;22.05;20.02;;;;;;;9.02;100.00;100809.69;5071394;28;20057;-80
2023/03/12 11:10:28;;;;;;;22.02;20.13;;;;;;;7.17;100.00;100806.69;5069685;28;20079;-79
2023/03/12 11:12:58;;;;;;;23.10;21.20;;;;;;;7.22;100.00;100804.28;5064420;28;20110;-79
2023/03/12 11:15:28;;;;;;;21.83;20.13;;;;;;;7.33;100.00;100814.41;5067389;28;20049;-79